createdAt,value
2016-10-22T00:00:11.681Z,9.82
2016-10-22T00:01:11.371Z,9.8
2016-10-22T00:02:11.382Z,9.77
2016-10-22T00:03:11.718Z,9.69
2016-10-22T00:04:11.738Z,9.73
2016-10-22T00:05:12.057Z,9.74
2016-10-22T00:06:11.763Z,9.8
2016-10-22T00:07:11.480Z,9.66
2016-10-22T00:08:11.796Z,9.74
2016-10-22T00:09:11.500Z,9.84
2016-10-22T00:10:11.533Z,9.83
2016-10-22T00:11:11.536Z,9.83
2016-10-22T00:12:11.548Z,9.76
2016-10-22T00:13:11.571Z,9.83
2016-10-22T00:14:11.588Z,9.65
2016-10-22T00:15:11.626Z,9.65
2016-10-22T00:16:11.637Z,9.65
2016-10-22T00:17:11.951Z,9.64
2016-10-22T00:18:11.995Z,9.79
2016-10-22T00:19:12.302Z,9.82
2016-10-22T00:20:11.709Z,9.84
2016-10-22T00:21:12.016Z,9.83
2016-10-22T00:22:12.042Z,9.89
2016-10-22T00:23:11.752Z,9.87
2016-10-22T00:24:12.073Z,9.87
2016-10-22T00:25:12.094Z,9.79
2016-10-22T00:26:12.448Z,9.84
2016-10-22T00:27:11.808Z,9.86
2016-10-22T00:28:11.837Z,9.73
2016-10-22T00:29:12.168Z,9.65
2016-10-22T00:30:12.525Z,9.82
2016-10-22T00:31:12.190Z,9.86
2016-10-22T00:32:12.217Z,9.84
2016-10-22T00:33:11.912Z,9.77
2016-10-22T00:34:12.587Z,9.74
2016-10-22T00:35:12.263Z,9.82
2016-10-22T00:36:11.967Z,9.82
2016-10-22T00:37:12.303Z,9.86
2016-10-22T00:38:12.626Z,9.94
2016-10-22T00:39:12.644Z,9.84
2016-10-22T00:40:12.029Z,9.77
2016-10-22T00:41:12.362Z,9.82
2016-10-22T00:42:12.697Z,9.77
2016-10-22T00:43:12.394Z,9.8
2016-10-22T00:44:12.413Z,9.89
2016-10-22T00:45:12.120Z,9.83
2016-10-22T00:46:12.130Z,9.86
2016-10-22T00:47:12.464Z,9.87
2016-10-22T00:48:12.808Z,9.82
2016-10-22T00:49:12.509Z,9.79
2016-10-22T00:50:12.517Z,9.84
2016-10-22T00:51:12.217Z,9.84
2016-10-22T00:52:12.559Z,9.84
2016-10-22T00:53:12.893Z,9.8
2016-10-22T00:54:12.903Z,9.86
2016-10-22T00:55:12.930Z,9.87
2016-10-22T00:56:12.626Z,9.99
2016-10-22T00:57:12.646Z,9.95
2016-10-22T00:58:12.655Z,9.92
2016-10-22T00:59:12.683Z,9.99
2016-10-22T01:00:12.380Z,10.1
2016-10-22T01:01:12.400Z,10.07
2016-10-22T01:02:13.039Z,9.98
2016-10-22T01:03:12.431Z,9.98
2016-10-22T01:04:12.783Z,10.04
2016-10-22T01:05:12.777Z,10.09
2016-10-22T01:06:12.801Z,10.05
2016-10-22T01:07:12.815Z,10.16
2016-10-22T01:08:12.537Z,9.97
2016-10-22T01:09:13.162Z,9.95
2016-10-22T01:10:12.551Z,9.97
2016-10-22T01:11:12.909Z,9.95
2016-10-22T01:12:12.905Z,10.07
2016-10-22T01:13:12.918Z,10.04
2016-10-22T01:14:13.107Z,10.04
2016-10-22T01:15:12.656Z,9.97
2016-10-22T01:16:13.289Z,10.04
2016-10-22T01:17:12.987Z,9.94
2016-10-22T01:18:12.689Z,9.92
2016-10-22T01:19:13.344Z,10.05
2016-10-22T01:20:13.350Z,10.05
2016-10-22T01:21:13.369Z,9.99
2016-10-22T01:22:13.394Z,9.92
2016-10-22T01:23:12.774Z,10.04
2016-10-22T01:24:13.115Z,9.87
2016-10-22T01:25:13.176Z,9.89
2016-10-22T01:26:12.849Z,10.01
2016-10-22T01:27:13.180Z,10.02
2016-10-22T01:28:12.866Z,10.02
2016-10-22T01:29:13.198Z,10.07
2016-10-22T01:30:12.911Z,9.95
2016-10-22T01:31:13.551Z,9.86
2016-10-22T01:32:13.649Z,9.99
2016-10-22T01:33:12.946Z,10.01
2016-10-22T01:34:13.285Z,9.98
2016-10-22T01:35:28.187Z,10.01
2016-10-22T01:36:13.004Z,9.95
2016-10-22T01:37:13.357Z,9.99
2016-10-22T01:38:13.356Z,9.94
2016-10-22T01:39:13.051Z,9.84
2016-10-22T01:40:13.400Z,9.92
2016-10-22T01:41:13.467Z,9.86
2016-10-22T01:42:13.741Z,9.89
2016-10-22T01:43:13.441Z,9.86
2016-10-22T01:44:13.468Z,9.99
2016-10-22T01:45:13.476Z,9.89
2016-10-22T01:46:13.201Z,9.87
2016-10-22T01:47:13.222Z,10.02
2016-10-22T01:48:13.219Z,9.95
2016-10-22T01:49:13.535Z,10.01
2016-10-22T01:50:13.984Z,9.97
2016-10-22T01:51:13.279Z,9.87
2016-10-22T01:52:13.596Z,10.04
2016-10-22T01:53:13.315Z,9.99
2016-10-22T01:54:13.625Z,9.98
2016-10-22T01:55:13.331Z,9.99
2016-10-22T01:56:13.344Z,9.98
2016-10-22T01:57:14.007Z,10.04
2016-10-22T01:58:13.699Z,9.95
2016-10-22T01:59:13.402Z,9.97
2016-10-22T02:00:13.437Z,9.87
2016-10-22T02:01:14.066Z,9.86
2016-10-22T02:02:13.767Z,9.82
2016-10-22T02:03:13.472Z,9.92
2016-10-22T02:04:14.001Z,10.01
2016-10-22T02:05:13.506Z,10.04
2016-10-22T02:06:13.528Z,9.94
2016-10-22T02:07:14.168Z,9.95
2016-10-22T02:08:13.569Z,9.87
2016-10-22T02:09:13.569Z,9.91
2016-10-22T02:10:14.225Z,9.91
2016-10-22T02:11:13.927Z,9.92
2016-10-22T02:12:13.621Z,9.91
2016-10-22T02:13:13.958Z,9.8
2016-10-22T02:14:13.978Z,9.86
2016-10-22T02:15:14.309Z,9.91
2016-10-22T02:16:13.703Z,9.82
2016-10-22T02:17:13.715Z,9.79
2016-10-22T02:18:14.047Z,9.82
2016-10-22T02:19:14.064Z,9.82
2016-10-22T02:20:14.091Z,9.8
2016-10-22T02:21:14.096Z,9.84
2016-10-22T02:22:14.114Z,9.91
2016-10-22T02:23:14.131Z,9.91
2016-10-22T02:24:13.832Z,9.87
2016-10-22T02:25:14.170Z,9.92
2016-10-22T02:26:14.186Z,9.95
2016-10-22T02:27:14.203Z,9.91
2016-10-22T02:28:14.573Z,9.95
2016-10-22T02:29:13.918Z,9.95
2016-10-22T02:30:14.253Z,9.84
2016-10-22T02:31:13.954Z,9.82
2016-10-22T02:32:13.973Z,9.82
2016-10-22T02:33:14.311Z,9.8
2016-10-22T02:34:14.324Z,9.76
2016-10-22T02:35:14.024Z,9.83
2016-10-22T02:36:14.053Z,9.79
2016-10-22T02:37:14.689Z,9.8
2016-10-22T02:38:14.391Z,9.86
2016-10-22T02:39:14.408Z,9.84
2016-10-22T02:40:14.434Z,9.79
2016-10-22T02:41:14.443Z,9.82
2016-10-22T02:42:14.459Z,9.83
2016-10-22T02:43:14.176Z,9.8
2016-10-22T02:44:14.505Z,9.83
2016-10-22T02:45:14.514Z,9.8
2016-10-22T02:46:14.220Z,9.73
2016-10-22T02:47:14.861Z,9.68
2016-10-22T02:48:14.875Z,9.73
2016-10-22T02:49:14.267Z,9.79
2016-10-22T02:50:14.917Z,9.86
2016-10-22T02:51:14.299Z,9.82
2016-10-22T02:52:14.653Z,9.8
2016-10-22T02:53:14.349Z,9.79
2016-10-22T02:54:14.352Z,9.82
2016-10-22T02:55:14.683Z,9.74
2016-10-22T02:56:14.701Z,9.83
2016-10-22T02:57:14.403Z,9.83
2016-10-22T02:58:14.738Z,9.84
2016-10-22T02:59:14.756Z,9.84
2016-10-22T03:00:14.472Z,9.84
2016-10-22T03:01:14.786Z,9.89
2016-10-22T03:02:14.804Z,9.86
2016-10-22T03:03:15.133Z,9.86
2016-10-22T03:04:14.838Z,9.91
2016-10-22T03:05:14.539Z,9.91
2016-10-22T03:06:14.558Z,9.99
2016-10-22T03:07:14.572Z,9.98
2016-10-22T03:08:15.223Z,9.95
2016-10-22T03:09:14.609Z,9.97
2016-10-22T03:10:14.623Z,10.04
2016-10-22T03:11:15.272Z,9.99
2016-10-22T03:12:14.662Z,9.94
2016-10-22T03:13:14.994Z,9.97
2016-10-22T03:14:15.016Z,9.76
2016-10-22T03:15:15.345Z,9.8
2016-10-22T03:16:15.366Z,9.86
2016-10-22T03:17:14.746Z,9.94
2016-10-22T03:18:15.394Z,9.87
2016-10-22T03:19:15.126Z,9.91
2016-10-22T03:20:15.455Z,9.91
2016-10-22T03:21:15.134Z,9.97
2016-10-22T03:22:15.149Z,10.02
2016-10-22T03:23:14.847Z,9.97
2016-10-22T03:24:14.865Z,9.98
2016-10-22T03:25:15.515Z,9.95
2016-10-22T03:26:14.905Z,10.01
2016-10-22T03:27:14.918Z,9.99
2016-10-22T03:28:15.581Z,9.95
2016-10-22T03:29:14.969Z,9.94
2016-10-22T03:30:14.975Z,9.95
2016-10-22T03:31:15.303Z,9.95
2016-10-22T03:32:15.009Z,9.92
2016-10-22T03:33:15.339Z,9.87
2016-10-22T03:34:15.068Z,9.91
2016-10-22T03:35:15.736Z,9.84
2016-10-22T03:36:15.389Z,9.82
2016-10-22T03:37:15.097Z,9.66
2016-10-22T03:38:15.745Z,9.84
2016-10-22T03:39:15.486Z,9.79
2016-10-22T03:40:15.778Z,9.84
2016-10-22T03:41:15.163Z,9.87
2016-10-22T03:42:15.491Z,9.84
2016-10-22T03:43:15.824Z,9.82
2016-10-22T03:44:15.214Z,9.83
2016-10-22T03:45:15.545Z,9.87
2016-10-22T03:46:15.564Z,9.91
2016-10-22T03:47:15.263Z,9.92
2016-10-22T03:48:15.913Z,9.91
2016-10-22T03:49:15.947Z,9.89
2016-10-22T03:50:15.636Z,9.86
2016-10-22T03:51:15.652Z,9.89
2016-10-22T03:52:15.701Z,9.86
2016-10-22T03:53:15.364Z,9.8
2016-10-22T03:54:15.387Z,9.72
2016-10-22T03:55:15.724Z,9.82
2016-10-22T03:56:15.736Z,9.84
2016-10-22T03:57:15.760Z,9.86
2016-10-22T03:58:15.769Z,9.8
2016-10-22T03:59:15.847Z,9.89
2016-10-22T04:00:16.123Z,9.86
2016-10-22T04:01:15.851Z,9.79
2016-10-22T04:02:15.910Z,9.69
2016-10-22T04:03:16.178Z,9.59
2016-10-22T04:04:15.557Z,9.55
2016-10-22T04:05:15.580Z,9.51
2016-10-22T04:06:15.911Z,9.68
2016-10-22T04:07:15.926Z,9.69
2016-10-22T04:08:15.947Z,9.77
2016-10-22T04:09:15.648Z,9.89
2016-10-22T04:10:15.978Z,9.8
2016-10-22T04:11:15.997Z,9.66
2016-10-22T04:12:16.020Z,9.64
2016-10-22T04:13:16.030Z,9.66
2016-10-22T04:14:16.356Z,9.56
2016-10-22T04:15:16.063Z,9.56
2016-10-22T04:16:15.769Z,9.61
2016-10-22T04:17:16.120Z,9.5
2016-10-22T04:18:16.114Z,9.47
2016-10-22T04:19:15.864Z,9.54
2016-10-22T04:20:15.833Z,9.54
2016-10-22T04:21:16.482Z,9.65
2016-10-22T04:22:16.498Z,9.58
2016-10-22T04:23:16.521Z,9.54
2016-10-22T04:24:15.907Z,9.65
2016-10-22T04:25:15.924Z,9.65
2016-10-22T04:26:16.258Z,9.54
2016-10-22T04:27:16.275Z,9.51
2016-10-22T04:28:16.609Z,9.5
2016-10-22T04:29:16.007Z,9.48
2016-10-22T04:30:16.328Z,9.43
2016-10-22T04:31:16.023Z,9.58
2016-10-22T04:32:16.672Z,9.5
2016-10-22T04:33:16.381Z,9.62
2016-10-22T04:34:16.077Z,9.56
2016-10-22T04:35:16.409Z,9.54
2016-10-22T04:36:16.431Z,9.47
2016-10-22T04:37:16.481Z,9.5
2016-10-22T04:38:16.142Z,9.41
2016-10-22T04:39:16.479Z,9.54
2016-10-22T04:40:16.504Z,9.48
2016-10-22T04:41:16.197Z,9.64
2016-10-22T04:42:16.222Z,9.66
2016-10-22T04:43:16.232Z,9.77
2016-10-22T04:44:16.567Z,9.74
2016-10-22T04:45:16.584Z,9.77
2016-10-22T04:46:16.917Z,9.83
2016-10-22T04:47:16.930Z,9.82
2016-10-22T04:48:16.634Z,9.82
2016-10-22T04:49:16.652Z,9.73
2016-10-22T04:50:16.672Z,9.62
2016-10-22T04:51:17.034Z,9.61
2016-10-22T04:52:17.052Z,9.54
2016-10-22T04:53:16.412Z,9.59
2016-10-22T04:54:16.750Z,9.65
2016-10-22T04:55:16.756Z,9.62
2016-10-22T04:56:17.114Z,9.68
2016-10-22T04:57:17.123Z,9.56
2016-10-22T04:58:16.806Z,9.51
2016-10-22T04:59:16.820Z,9.54
2016-10-22T05:00:16.524Z,9.56
2016-10-22T05:01:16.873Z,9.48
2016-10-22T05:02:16.876Z,9.51
2016-10-22T05:03:16.894Z,9.34
2016-10-22T05:04:16.930Z,9.51
2016-10-22T05:05:16.927Z,9.46
2016-10-22T05:06:16.943Z,9.44
2016-10-22T05:07:16.965Z,9.34
2016-10-22T05:08:16.981Z,9.41
2016-10-22T05:09:16.680Z,9.34
2016-10-22T05:10:17.009Z,9.41
2016-10-22T05:11:17.029Z,9.32
2016-10-22T05:12:17.045Z,9.4
2016-10-22T05:13:16.750Z,9.34
2016-10-22T05:14:17.078Z,9.4
2016-10-22T05:15:17.413Z,9.41
2016-10-22T05:16:17.116Z,9.46
2016-10-22T05:17:17.134Z,9.39
2016-10-22T05:18:17.152Z,9.46
2016-10-22T05:19:17.172Z,9.41
2016-10-22T05:20:17.187Z,9.39
2016-10-22T05:21:16.890Z,9.4
2016-10-22T05:22:17.215Z,9.54
2016-10-22T05:23:16.916Z,9.56
2016-10-22T05:24:16.937Z,9.54
2016-10-22T05:25:16.965Z,9.66
2016-10-22T05:26:17.292Z,9.61
2016-10-22T05:27:16.988Z,9.66
2016-10-22T05:28:17.318Z,9.68
2016-10-22T05:29:17.021Z,9.54
2016-10-22T05:30:17.369Z,9.68
2016-10-22T05:31:17.377Z,9.65
2016-10-22T05:32:17.702Z,9.61
2016-10-22T05:33:17.087Z,9.65
2016-10-22T05:34:17.438Z,9.55
2016-10-22T05:35:17.440Z,9.47
2016-10-22T05:36:17.140Z,9.54
2016-10-22T05:37:17.164Z,9.54
2016-10-22T05:38:17.501Z,9.54
2016-10-22T05:39:17.188Z,9.54
2016-10-22T05:40:17.523Z,9.51
2016-10-22T05:41:17.560Z,9.56
2016-10-22T05:42:17.874Z,9.55
2016-10-22T05:43:17.890Z,9.55
2016-10-22T05:44:17.592Z,9.5
2016-10-22T05:45:17.932Z,9.5
2016-10-22T05:46:17.625Z,9.43
2016-10-22T05:47:17.322Z,9.47
2016-10-22T05:48:17.977Z,9.39
2016-10-22T05:49:17.359Z,9.34
2016-10-22T05:50:17.408Z,9.39
2016-10-22T05:51:17.761Z,9.47
2016-10-22T05:52:17.725Z,9.51
2016-10-22T05:53:17.750Z,9.37
2016-10-22T05:54:18.085Z,9.41
2016-10-22T05:55:17.778Z,9.47
2016-10-22T05:56:17.800Z,9.51
2016-10-22T05:57:18.153Z,9.54
2016-10-22T05:58:17.827Z,9.5
2016-10-22T05:59:17.843Z,9.56
2016-10-22T06:00:17.866Z,9.47
2016-10-22T06:01:17.876Z,9.48
2016-10-22T06:02:18.213Z,9.4
2016-10-22T06:03:18.245Z,9.44
2016-10-22T06:04:17.926Z,9.39
2016-10-22T06:05:17.943Z,9.34
2016-10-22T06:06:17.647Z,9.32
2016-10-22T06:07:17.977Z,9.34
2016-10-22T06:08:17.675Z,9.44
2016-10-22T06:09:18.011Z,9.41
2016-10-22T06:10:17.712Z,9.47
2016-10-22T06:11:18.057Z,9.37
2016-10-22T06:12:17.753Z,9.43
2016-10-22T06:13:18.077Z,9.32
2016-10-22T06:14:18.433Z,9.51
2016-10-22T06:15:18.460Z,9.48
2016-10-22T06:16:33.015Z,9.37
2016-10-22T06:17:17.837Z,9.34
2016-10-22T06:18:18.214Z,9.41
2016-10-22T06:19:17.878Z,9.37
2016-10-22T06:20:17.887Z,9.47
2016-10-22T06:21:17.899Z,9.32
2016-10-22T06:22:18.546Z,9.43
2016-10-22T06:23:18.245Z,9.41
2016-10-22T06:24:18.273Z,9.43
2016-10-22T06:25:18.285Z,9.4
2016-10-22T06:26:18.305Z,9.37
2016-10-22T06:27:18.632Z,9.47
2016-10-22T06:28:18.651Z,9.4
2016-10-22T06:29:18.037Z,9.39
2016-10-22T06:30:18.688Z,9.41
2016-10-22T06:31:18.068Z,9.46
2016-10-22T06:32:18.086Z,9.44
2016-10-22T06:33:18.729Z,9.4
2016-10-22T06:34:18.117Z,9.34
2016-10-22T06:35:18.451Z,9.37
2016-10-22T06:36:18.156Z,9.37
2016-10-22T06:37:18.486Z,9.37
2016-10-22T06:38:18.186Z,9.46
2016-10-22T06:39:18.521Z,9.41
2016-10-22T06:40:18.539Z,9.41
2016-10-22T06:41:18.554Z,9.48
2016-10-22T06:42:18.262Z,9.54
2016-10-22T06:43:18.274Z,9.5
2016-10-22T06:44:18.292Z,9.51
2016-10-22T06:45:18.308Z,9.47
2016-10-22T06:46:18.640Z,9.4
2016-10-22T06:47:18.338Z,9.51
2016-10-22T06:48:18.369Z,9.51
2016-10-22T06:49:18.690Z,9.56
2016-10-22T06:50:18.706Z,9.51
2016-10-22T06:51:18.406Z,9.43
2016-10-22T06:52:18.752Z,9.37
2016-10-22T06:53:18.447Z,9.36
2016-10-22T06:54:18.777Z,9.41
2016-10-22T06:55:18.493Z,9.47
2016-10-22T06:56:19.124Z,9.44
2016-10-22T06:57:18.512Z,9.5
2016-10-22T06:58:18.839Z,9.55
2016-10-22T06:59:18.860Z,9.5
2016-10-22T07:00:18.560Z,9.54
2016-10-22T07:01:18.577Z,9.54
2016-10-22T07:02:18.909Z,9.5
2016-10-22T07:03:18.610Z,9.56
2016-10-22T07:04:18.945Z,9.64
2016-10-22T07:05:19.278Z,9.64
2016-10-22T07:06:18.978Z,9.61
2016-10-22T07:07:18.997Z,9.62
2016-10-22T07:08:19.013Z,9.59
2016-10-22T07:09:18.715Z,9.59
2016-10-22T07:10:19.364Z,9.66
2016-10-22T07:11:19.064Z,9.73
2016-10-22T07:12:19.102Z,9.83
2016-10-22T07:13:19.098Z,9.86
2016-10-22T07:14:19.124Z,9.87
2016-10-22T07:15:18.820Z,9.99
2016-10-22T07:16:18.844Z,10.07
2016-10-22T07:17:18.851Z,10.26
2016-10-22T07:18:19.220Z,10.26
2016-10-22T07:19:18.887Z,10.38
2016-10-22T07:20:18.948Z,10.34
2016-10-22T07:21:19.236Z,10.46
2016-10-22T07:22:19.254Z,10.41
2016-10-22T07:23:19.584Z,10.42
2016-10-22T07:24:19.293Z,10.44
2016-10-22T07:25:19.308Z,10.48
2016-10-22T07:26:19.325Z,10.61
2016-10-22T07:27:19.342Z,10.57
2016-10-22T07:28:19.368Z,10.59
2016-10-22T07:29:19.689Z,10.63
2016-10-22T07:30:19.391Z,10.64
2016-10-22T07:31:19.094Z,10.63
2016-10-22T07:32:19.436Z,10.56
2016-10-22T07:33:19.450Z,10.61
2016-10-22T07:34:19.151Z,10.61
2016-10-22T07:35:19.796Z,10.72
2016-10-22T07:36:19.812Z,10.61
2016-10-22T07:37:19.205Z,10.68
2016-10-22T07:38:19.530Z,10.69
2016-10-22T07:39:19.552Z,10.75
2016-10-22T07:40:19.591Z,10.76
2016-10-22T07:41:19.589Z,10.81
2016-10-22T07:42:19.604Z,10.97
2016-10-22T07:43:19.937Z,11.1
2016-10-22T07:44:19.325Z,11.08
2016-10-22T07:45:19.656Z,11.23
2016-10-22T07:46:19.680Z,11.19
2016-10-22T07:47:19.716Z,11.32
2016-10-22T07:48:19.408Z,11.57
2016-10-22T07:49:19.731Z,11.65
2016-10-22T07:50:19.748Z,11.65
2016-10-22T07:51:19.765Z,11.65
2016-10-22T07:52:19.783Z,11.72
2016-10-22T07:53:19.810Z,11.75
2016-10-22T07:54:19.817Z,11.86
2016-10-22T07:55:20.161Z,11.88
2016-10-22T07:56:20.173Z,12.17
2016-10-22T07:57:19.875Z,12.65
2016-10-22T07:58:19.576Z,12.95
2016-10-22T07:59:19.595Z,13.49
2016-10-22T08:00:19.614Z,13.86
2016-10-22T08:01:19.951Z,14.11
2016-10-22T08:02:19.977Z,13.96
2016-10-22T08:03:19.687Z,13.75
2016-10-22T08:04:20.005Z,13.53
2016-10-22T08:05:20.020Z,13.47
2016-10-22T08:06:20.041Z,13.28
2016-10-22T08:07:19.749Z,13.33
2016-10-22T08:08:19.768Z,13.31
2016-10-22T08:09:20.424Z,13.28
2016-10-22T08:10:19.807Z,13.33
2016-10-22T08:11:20.455Z,13.47
2016-10-22T08:12:19.853Z,13.56
2016-10-22T08:13:20.180Z,13.72
2016-10-22T08:14:20.194Z,13.79
2016-10-22T08:15:19.913Z,14.04
2016-10-22T08:16:20.238Z,14.15
2016-10-22T08:17:19.956Z,14.11
2016-10-22T08:18:20.278Z,14.05
2016-10-22T08:19:20.303Z,14.18
2016-10-22T08:20:20.632Z,14.37
2016-10-22T08:21:20.336Z,14.48
2016-10-22T08:22:20.052Z,14.58
2016-10-22T08:23:20.383Z,14.78
2016-10-22T08:24:20.398Z,15.03
2016-10-22T08:25:20.150Z,15.39
2016-10-22T08:26:20.133Z,15.91
2016-10-22T08:27:20.776Z,16.32
2016-10-22T08:28:20.166Z,16.56
2016-10-22T08:29:20.514Z,16.46
2016-10-22T08:30:20.526Z,16.23
2016-10-22T08:31:20.867Z,15.97
2016-10-22T08:32:20.568Z,15.95
2016-10-22T08:33:20.602Z,16.02
2016-10-22T08:34:20.661Z,16.01
2016-10-22T08:35:20.322Z,16.05
2016-10-22T08:36:20.340Z,16.05
2016-10-22T08:37:20.367Z,15.97
2016-10-22T08:38:20.387Z,15.95
2016-10-22T08:39:20.754Z,15.7
2016-10-22T08:40:20.751Z,15.54
2016-10-22T08:41:20.466Z,15.61
2016-10-22T08:42:20.787Z,15.8
2016-10-22T08:43:20.488Z,15.94
2016-10-22T08:44:21.145Z,15.79
2016-10-22T08:45:20.872Z,15.51
2016-10-22T08:46:20.874Z,15.36
2016-10-22T08:47:20.888Z,15.19
2016-10-22T08:48:20.614Z,15.25
2016-10-22T08:49:20.929Z,15.21
2016-10-22T08:50:21.274Z,15.17
2016-10-22T08:51:20.670Z,15.02
2016-10-22T08:52:21.310Z,14.88
2016-10-22T08:53:21.017Z,14.66
2016-10-22T08:54:21.042Z,14.68
2016-10-22T08:55:21.071Z,14.55
2016-10-22T08:56:21.158Z,14.55
2016-10-22T08:57:21.418Z,14.58
2016-10-22T08:58:21.440Z,14.7
2016-10-22T08:59:21.204Z,14.59
2016-10-22T09:00:21.179Z,14.69
2016-10-22T09:01:20.871Z,14.65
2016-10-22T09:02:21.532Z,14.77
2016-10-22T09:03:21.229Z,14.86
2016-10-22T09:04:21.250Z,15.02
2016-10-22T09:05:20.973Z,15.14
2016-10-22T09:06:21.295Z,15.28
2016-10-22T09:07:21.315Z,15.44
2016-10-22T09:08:21.334Z,15.58
2016-10-22T09:09:21.358Z,15.65
2016-10-22T09:10:21.382Z,15.75
2016-10-22T09:11:21.401Z,15.77
2016-10-22T09:12:21.171Z,15.83
2016-10-22T09:13:21.129Z,15.76
2016-10-22T09:14:21.461Z,15.67
2016-10-22T09:15:21.804Z,15.8
2016-10-22T09:16:21.504Z,15.61
2016-10-22T09:17:21.241Z,15.57
2016-10-22T09:18:21.236Z,15.42
2016-10-22T09:19:21.252Z,15.35
2016-10-22T09:20:21.588Z,15.36
2016-10-22T09:21:21.296Z,15.47
2016-10-22T09:22:21.642Z,15.46
2016-10-22T09:23:21.335Z,15.44
2016-10-22T09:24:21.671Z,15.43
2016-10-22T09:25:21.388Z,15.58
2016-10-22T09:26:21.723Z,15.75
2016-10-22T09:27:21.739Z,15.77
2016-10-22T09:28:21.763Z,15.82
2016-10-22T09:29:21.827Z,15.76
2016-10-22T09:30:22.113Z,15.83
2016-10-22T09:31:22.137Z,15.8
2016-10-22T09:32:22.162Z,15.95
2016-10-22T09:33:22.186Z,15.94
2016-10-22T09:34:21.895Z,15.98
2016-10-22T09:35:21.912Z,16.05
2016-10-22T09:36:21.628Z,16.02
2016-10-22T09:37:21.635Z,16.05
2016-10-22T09:38:21.663Z,16.09
2016-10-22T09:39:21.995Z,15.98
2016-10-22T09:40:21.702Z,16.01
2016-10-22T09:41:22.365Z,16.12
2016-10-22T09:42:22.057Z,16.09
2016-10-22T09:43:21.771Z,16.1
2016-10-22T09:44:22.104Z,16.26
2016-10-22T09:45:21.812Z,16.33
2016-10-22T09:46:22.149Z,16.38
2016-10-22T09:47:21.857Z,16.17
2016-10-22T09:48:22.191Z,16.31
2016-10-22T09:49:21.901Z,16.38
2016-10-22T09:50:22.263Z,16.41
2016-10-22T09:51:21.938Z,16.41
2016-10-22T09:52:22.276Z,16.41
2016-10-22T09:53:22.305Z,16.57
2016-10-22T09:54:22.636Z,16.49
2016-10-22T09:55:22.345Z,16.6
2016-10-22T09:56:22.683Z,16.51
2016-10-22T09:57:22.071Z,16.49
2016-10-22T09:58:22.728Z,16.56
2016-10-22T09:59:22.451Z,16.64
2016-10-22T10:00:22.139Z,16.68
2016-10-22T10:01:22.163Z,16.79
2016-10-22T10:02:22.495Z,16.97
2016-10-22T10:03:22.518Z,17.04
2016-10-22T10:04:22.901Z,17.14
2016-10-22T10:05:22.566Z,17.26
2016-10-22T10:06:22.900Z,17.26
2016-10-22T10:07:22.924Z,17.22
2016-10-22T10:08:22.968Z,17.3
2016-10-22T10:09:22.659Z,17.31
2016-10-22T10:10:22.994Z,17.27
2016-10-22T10:11:23.017Z,17.29
2016-10-22T10:12:22.725Z,17.38
2016-10-22T10:13:22.443Z,17.39
2016-10-22T10:14:22.764Z,17.36
2016-10-22T10:15:22.802Z,17.44
2016-10-22T10:16:22.517Z,17.41
2016-10-22T10:17:23.146Z,17.46
2016-10-22T10:18:22.542Z,17.51
2016-10-22T10:19:23.197Z,17.46
2016-10-22T10:20:22.920Z,17.65
2016-10-22T10:21:22.935Z,17.71
2016-10-22T10:22:22.950Z,17.67
2016-10-22T10:23:23.299Z,17.52
2016-10-22T10:24:37.882Z,17.63
2016-10-22T10:25:23.017Z,17.7
2016-10-22T10:26:23.044Z,17.67
2016-10-22T10:27:23.383Z,17.79
2016-10-22T10:28:23.403Z,17.8
2016-10-22T10:29:23.422Z,17.74
2016-10-22T10:30:22.836Z,17.71
2016-10-22T10:31:23.155Z,17.72
2016-10-22T10:32:23.200Z,17.71
2016-10-22T10:33:22.890Z,17.65
2016-10-22T10:34:22.907Z,17.8
2016-10-22T10:35:23.613Z,17.72
2016-10-22T10:36:22.990Z,17.67
2016-10-22T10:37:23.296Z,17.6
2016-10-22T10:38:23.316Z,17.46
2016-10-22T10:39:23.378Z,17.48
2016-10-22T10:40:23.049Z,17.52
2016-10-22T10:41:23.073Z,17.52
2016-10-22T10:42:23.405Z,17.54
2016-10-22T10:43:23.433Z,17.39
2016-10-22T10:44:23.766Z,17.56
2016-10-22T10:45:23.476Z,17.42
2016-10-22T10:46:23.535Z,17.27
2016-10-22T10:47:23.839Z,17.36
2016-10-22T10:48:23.231Z,17.34
2016-10-22T10:49:23.892Z,17.48
2016-10-22T10:50:23.279Z,17.59
2016-10-22T10:51:23.317Z,17.68
2016-10-22T10:52:23.324Z,17.63
2016-10-22T10:53:23.657Z,17.65
2016-10-22T10:54:23.386Z,17.59
2016-10-22T10:55:23.723Z,17.49
2016-10-22T10:56:23.727Z,17.45
2016-10-22T10:57:24.067Z,17.33
2016-10-22T10:58:23.461Z,17.3
2016-10-22T10:59:23.486Z,17.33
2016-10-22T11:00:23.509Z,17.33
2016-10-22T11:01:23.844Z,17.38
2016-10-22T11:02:24.181Z,17.38
2016-10-22T11:03:23.884Z,17.33
2016-10-22T11:04:23.601Z,17.39
2016-10-22T11:05:23.936Z,17.45
2016-10-22T11:06:23.651Z,17.51
2016-10-22T11:07:24.295Z,17.54
2016-10-22T11:08:24.323Z,17.56
2016-10-22T11:09:24.378Z,17.51
2016-10-22T11:10:24.051Z,17.52
2016-10-22T11:11:24.384Z,17.49
2016-10-22T11:12:24.411Z,17.56
2016-10-22T11:13:24.437Z,17.52
2016-10-22T11:14:23.832Z,17.56
2016-10-22T11:15:24.507Z,17.72
2016-10-22T11:16:24.226Z,17.86
2016-10-22T11:17:24.246Z,17.92
2016-10-22T11:18:23.916Z,18.05
2016-10-22T11:19:24.289Z,18.19
2016-10-22T11:20:24.592Z,18.07
2016-10-22T11:21:24.301Z,18.15
2016-10-22T11:22:24.013Z,18.29
2016-10-22T11:23:24.039Z,18.31
2016-10-22T11:24:24.683Z,18.29
2016-10-22T11:25:24.406Z,18.22
2016-10-22T11:26:24.732Z,18.37
2016-10-22T11:27:24.124Z,18.45
2016-10-22T11:28:24.144Z,18.49
2016-10-22T11:29:24.170Z,18.52
2016-10-22T11:30:24.189Z,18.62
2016-10-22T11:31:24.536Z,18.63
2016-10-22T11:32:24.239Z,18.77
2016-10-22T11:33:24.894Z,18.78
2016-10-22T11:34:24.287Z,18.75
2016-10-22T11:35:24.941Z,18.62
2016-10-22T11:36:24.336Z,18.66
2016-10-22T11:37:24.687Z,18.68
2016-10-22T11:38:25.010Z,18.73
2016-10-22T11:39:24.713Z,18.71
2016-10-22T11:40:25.059Z,18.74
2016-10-22T11:41:24.777Z,18.71
2016-10-22T11:42:25.168Z,18.71
2016-10-22T11:43:25.124Z,18.7
2016-10-22T11:44:24.831Z,18.75
2016-10-22T11:45:25.185Z,18.8
2016-10-22T11:46:25.201Z,18.71
2016-10-22T11:47:24.904Z,18.59
2016-10-22T11:48:24.925Z,18.6
2016-10-22T11:49:24.951Z,18.55
2016-10-22T11:50:25.004Z,18.47
2016-10-22T11:51:25.000Z,18.34
2016-10-22T11:52:25.018Z,18.33
2016-10-22T11:53:25.056Z,18.08
2016-10-22T11:54:24.765Z,17.97
2016-10-22T11:55:24.820Z,17.85
2016-10-22T11:56:24.803Z,17.89
2016-10-22T11:57:25.454Z,17.87
2016-10-22T11:58:24.850Z,17.92
2016-10-22T11:59:25.189Z,17.85
2016-10-22T12:00:25.210Z,17.92
2016-10-22T12:01:25.233Z,17.97
2016-10-22T12:02:25.259Z,17.89
2016-10-22T12:03:24.980Z,17.95
2016-10-22T12:04:25.008Z,17.9
2016-10-22T12:05:25.343Z,18.04
2016-10-22T12:06:25.354Z,18.15
2016-10-22T12:07:25.695Z,18.18
2016-10-22T12:08:25.739Z,18.2
2016-10-22T12:09:25.429Z,18.28
2016-10-22T12:10:25.134Z,18.22
2016-10-22T12:11:25.156Z,18.35
2016-10-22T12:12:25.184Z,18.2
2016-10-22T12:13:25.828Z,18.07
2016-10-22T12:14:25.532Z,18.05
2016-10-22T12:15:25.558Z,18.15
2016-10-22T12:16:25.905Z,18.1
2016-10-22T12:17:25.916Z,18.28
2016-10-22T12:18:25.635Z,18.25
2016-10-22T12:19:25.689Z,18.29
2016-10-22T12:20:25.359Z,18.38
2016-10-22T12:21:25.376Z,18.44
2016-10-22T12:22:25.403Z,18.45
2016-10-22T12:23:25.747Z,18.63
2016-10-22T12:24:25.461Z,18.62
2016-10-22T12:25:25.791Z,18.77
2016-10-22T12:26:25.814Z,18.8
2016-10-22T12:27:25.838Z,18.83
2016-10-22T12:28:25.863Z,18.8
2016-10-22T12:29:25.878Z,18.8
2016-10-22T12:30:26.223Z,18.83
2016-10-22T12:31:26.248Z,18.83
2016-10-22T12:32:25.952Z,18.71
2016-10-22T12:33:25.997Z,18.77
2016-10-22T12:34:25.999Z,18.71
2016-10-22T12:35:26.022Z,18.8
2016-10-22T12:36:25.734Z,18.9
2016-10-22T12:37:26.068Z,18.77
2016-10-22T12:38:26.094Z,18.84
2016-10-22T12:39:25.797Z,18.93
2016-10-22T12:40:26.157Z,18.95
2016-10-22T12:41:25.851Z,18.92
2016-10-22T12:42:26.507Z,18.98
2016-10-22T12:43:25.894Z,18.92
2016-10-22T12:44:26.235Z,18.81
2016-10-22T12:45:26.571Z,18.83
2016-10-22T12:46:26.598Z,18.75
2016-10-22T12:47:26.331Z,18.74
2016-10-22T12:48:26.338Z,18.77
2016-10-22T12:49:26.044Z,18.6
2016-10-22T12:50:26.060Z,18.62
2016-10-22T12:51:26.637Z,18.65
2016-10-22T12:52:26.739Z,18.75
2016-10-22T12:53:26.480Z,18.68
2016-10-22T12:54:26.158Z,18.7
2016-10-22T12:55:26.496Z,18.75
2016-10-22T12:56:26.839Z,18.86
2016-10-22T12:57:26.248Z,18.86
2016-10-22T12:58:26.882Z,18.81
2016-10-22T12:59:26.310Z,18.92
2016-10-22T13:00:26.433Z,18.88
2016-10-22T13:01:26.948Z,18.99
2016-10-22T13:02:26.974Z,18.92
2016-10-22T13:03:26.699Z,18.8
2016-10-22T13:04:26.713Z,18.83
2016-10-22T13:05:26.728Z,18.8
2016-10-22T13:06:27.073Z,18.96
2016-10-22T13:07:27.092Z,18.84